sensor_id;sensor_type;location;lat;lon;timestamp;pressure;altitude;pressure_sealevel;temperature;humidity
25420;BME280;13354;48.174;11.566;2024-03-25T00:00:54;94911.09;;;4.14;82.39
25420;BME280;13354;48.174;11.566;2024-03-25T00:03:19;94905.31;;;4.18;82.50
25420;BME280;13354;48.174;11.566;2024-03-25T00:05:45;94904.81;;;4.23;82.43
25420;BME280;13354;48.174;11.566;2024-03-25T00:08:11;94918.25;;;4.20;82.38
25420;BME280;13354;48.174;11.566;2024-03-25T00:10:37;94901.63;;;4.35;81.95
25420;BME280;13354;48.174;11.566;2024-03-25T00:13:02;94909.22;;;4.22;81.55
25420;BME280;13354;48.174;11.566;2024-03-25T00:15:28;94915.56;;;4.36;81.66
25420;BME280;13354;48.174;11.566;2024-03-25T00:17:53;94915.22;;;4.39;80.65
25420;BME280;13354;48.174;11.566;2024-03-25T00:20:19;94912.13;;;4.35;80.64
25420;BME280;13354;48.174;11.566;2024-03-25T00:22:46;94903.22;;;4.45;80.72
25420;BME280;13354;48.174;11.566;2024-03-25T00:25:12;94909.78;;;4.41;80.40
25420;BME280;13354;48.174;11.566;2024-03-25T00:27:37;94905.88;;;4.36;80.52
25420;BME280;13354;48.174;11.566;2024-03-25T00:30:03;94909.78;;;4.41;80.12
25420;BME280;13354;48.174;11.566;2024-03-25T00:32:30;94899.50;;;4.39;80.10
25420;BME280;13354;48.174;11.566;2024-03-25T00:34:55;94901.16;;;4.32;79.86
25420;BME280;13354;48.174;11.566;2024-03-25T00:37:21;94903.66;;;4.25;80.27
25420;BME280;13354;48.174;11.566;2024-03-25T00:39:47;94905.75;;;4.30;80.43
25420;BME280;13354;48.174;11.566;2024-03-25T00:42:12;94912.66;;;4.23;80.25
25420;BME280;13354;48.174;11.566;2024-03-25T00:44:38;94905.69;;;4.38;80.26
25420;BME280;13354;48.174;11.566;2024-03-25T00:47:03;94901.44;;;4.37;79.80
25420;BME280;13354;48.174;11.566;2024-03-25T00:49:29;94900.47;;;4.38;80.08
25420;BME280;13354;48.174;11.566;2024-03-25T00:51:54;94905.34;;;4.49;79.67
25420;BME280;13354;48.174;11.566;2024-03-25T00:54:20;94899.31;;;4.41;79.54
25420;BME280;13354;48.174;11.566;2024-03-25T00:56:45;94893.38;;;4.47;79.50
25420;BME280;13354;48.174;11.566;2024-03-25T00:59:12;94894.72;;;4.43;79.62
25420;BME280;13354;48.174;11.566;2024-03-25T01:01:37;94906.53;;;4.39;79.71
25420;BME280;13354;48.174;11.566;2024-03-25T01:04:03;94900.34;;;4.31;79.98
25420;BME280;13354;48.174;11.566;2024-03-25T01:06:29;94898.16;;;4.43;79.96
25420;BME280;13354;48.174;11.566;2024-03-25T01:08:55;94887.41;;;4.30;80.15
25420;BME280;13354;48.174;11.566;2024-03-25T01:11:20;94886.00;;;4.19;80.50
25420;BME280;13354;48.174;11.566;2024-03-25T01:13:47;94881.22;;;4.23;80.53
25420;BME280;13354;48.174;11.566;2024-03-25T01:16:12;94888.13;;;4.24;81.23
25420;BME280;13354;48.174;11.566;2024-03-25T01:18:37;94881.19;;;4.31;80.93
25420;BME280;13354;48.174;11.566;2024-03-25T01:21:03;94887.59;;;4.28;81.19
25420;BME280;13354;48.174;11.566;2024-03-25T01:23:30;94886.13;;;4.26;81.12
25420;BME280;13354;48.174;11.566;2024-03-25T01:25:55;94890.34;;;4.35;81.13
25420;BME280;13354;48.174;11.566;2024-03-25T01:28:21;94890.41;;;4.19;81.38
25420;BME280;13354;48.174;11.566;2024-03-25T01:30:46;94890.84;;;4.30;81.26
25420;BME280;13354;48.174;11.566;2024-03-25T01:33:12;94897.97;;;4.14;81.54
25420;BME280;13354;48.174;11.566;2024-03-25T01:35:37;94883.38;;;4.19;81.53
25420;BME280;13354;48.174;11.566;2024-03-25T01:38:03;94878.25;;;4.26;81.64
25420;BME280;13354;48.174;11.566;2024-03-25T01:40:29;94878.91;;;4.28;81.69
25420;BME280;13354;48.174;11.566;2024-03-25T01:42:59;94881.53;;;4.28;81.36
25420;BME280;13354;48.174;11.566;2024-03-25T01:45:25;94889.41;;;4.20;81.91
25420;BME280;13354;48.174;11.566;2024-03-25T01:47:52;94881.94;;;4.08;82.22
25420;BME280;13354;48.174;11.566;2024-03-25T01:50:18;94888.31;;;4.14;82.16
25420;BME280;13354;48.174;11.566;2024-03-25T01:52:44;94884.09;;;4.05;82.56
25420;BME280;13354;48.174;11.566;2024-03-25T01:55:16;94893.59;;;4.06;82.72
25420;BME280;13354;48.174;11.566;2024-03-25T01:57:43;94888.19;;;4.07;82.83
25420;BME280;13354;48.174;11.566;2024-03-25T02:00:10;94888.84;;;4.01;82.83
25420;BME280;13354;48.174;11.566;2024-03-25T02:02:38;94890.19;;;4.05;82.81
25420;BME280;13354;48.174;11.566;2024-03-25T02:05:07;94880.19;;;4.09;82.36
25420;BME280;13354;48.174;11.566;2024-03-25T02:07:35;94890.66;;;4.01;82.79
25420;BME280;13354;48.174;11.566;2024-03-25T02:10:06;94885.09;;;4.04;82.67
25420;BME280;13354;48.174;11.566;2024-03-25T02:12:32;94893.75;;;4.04;82.74
25420;BME280;13354;48.174;11.566;2024-03-25T02:14:58;94885.22;;;4.10;82.45
25420;BME280;13354;48.174;11.566;2024-03-25T02:17:24;94887.09;;;3.94;82.29
25420;BME280;13354;48.174;11.566;2024-03-25T02:19:51;94896.91;;;4.00;83.05
25420;BME280;13354;48.174;11.566;2024-03-25T02:22:17;94881.03;;;3.93;82.65
25420;BME280;13354;48.174;11.566;2024-03-25T02:24:45;94881.59;;;3.80;83.22
25420;BME280;13354;48.174;11.566;2024-03-25T02:27:12;94881.22;;;3.92;83.05
25420;BME280;13354;48.174;11.566;2024-03-25T02:29:40;94877.00;;;3.82;83.10
25420;BME280;13354;48.174;11.566;2024-03-25T02:32:07;94882.34;;;3.97;83.07
25420;BME280;13354;48.174;11.566;2024-03-25T02:34:41;94870.91;;;3.90;82.77
25420;BME280;13354;48.174;11.566;2024-03-25T02:37:08;94877.19;;;3.81;82.84
25420;BME280;13354;48.174;11.566;2024-03-25T02:39:35;94879.59;;;3.91;82.64
25420;BME280;13354;48.174;11.566;2024-03-25T02:42:01;94887.28;;;3.92;82.60
25420;BME280;13354;48.174;11.566;2024-03-25T02:44:26;94878.38;;;4.01;82.36
25420;BME280;13354;48.174;11.566;2024-03-25T02:46:52;94885.66;;;3.91;82.84
25420;BME280;13354;48.174;11.566;2024-03-25T02:49:18;94882.03;;;3.92;82.19
25420;BME280;13354;48.174;11.566;2024-03-25T02:51:43;94883.84;;;3.92;82.49
25420;BME280;13354;48.174;11.566;2024-03-25T02:54:09;94885.31;;;3.94;81.83
25420;BME280;13354;48.174;11.566;2024-03-25T02:56:35;94892.44;;;4.08;81.87
25420;BME280;13354;48.174;11.566;2024-03-25T02:59:01;94890.00;;;4.07;81.53
25420;BME280;13354;48.174;11.566;2024-03-25T03:01:26;94897.91;;;3.99;81.44
25420;BME280;13354;48.174;11.566;2024-03-25T03:03:52;94889.81;;;4.08;81.20
25420;BME280;13354;48.174;11.566;2024-03-25T03:06:17;94894.41;;;4.06;80.73
25420;BME280;13354;48.174;11.566;2024-03-25T03:08:44;94899.59;;;4.15;80.42
25420;BME280;13354;48.174;11.566;2024-03-25T03:11:10;94895.38;;;4.14;80.22
25420;BME280;13354;48.174;11.566;2024-03-25T03:13:35;94898.28;;;4.19;80.17
25420;BME280;13354;48.174;11.566;2024-03-25T03:16:01;94904.38;;;4.11;80.20
25420;BME280;13354;48.174;11.566;2024-03-25T03:18:27;94901.22;;;4.16;80.49
25420;BME280;13354;48.174;11.566;2024-03-25T03:20:53;94905.03;;;4.13;79.88
25420;BME280;13354;48.174;11.566;2024-03-25T03:23:21;94904.22;;;4.13;79.94
25420;BME280;13354;48.174;11.566;2024-03-25T03:25:47;94905.66;;;4.15;80.00
25420;BME280;13354;48.174;11.566;2024-03-25T03:28:12;94902.22;;;4.15;79.73
25420;BME280;13354;48.174;11.566;2024-03-25T03:30:38;94901.56;;;4.21;79.65
25420;BME280;13354;48.174;11.566;2024-03-25T03:33:04;94903.56;;;4.10;79.87
25420;BME280;13354;48.174;11.566;2024-03-25T03:35:32;94894.94;;;3.94;80.32
25420;BME280;13354;48.174;11.566;2024-03-25T03:37:58;94919.72;;;4.22;79.90
25420;BME280;13354;48.174;11.566;2024-03-25T03:40:23;94911.91;;;4.14;79.90
25420;BME280;13354;48.174;11.566;2024-03-25T03:42:49;94907.59;;;4.21;79.22
25420;BME280;13354;48.174;11.566;2024-03-25T03:45:14;94904.38;;;4.11;79.75
25420;BME280;13354;48.174;11.566;2024-03-25T03:47:40;94914.38;;;4.07;79.89
25420;BME280;13354;48.174;11.566;2024-03-25T03:50:06;94902.03;;;3.85;80.42
25420;BME280;13354;48.174;11.566;2024-03-25T03:52:33;94898.41;;;3.86;80.92
25420;BME280;13354;48.174;11.566;2024-03-25T03:54:58;94903.91;;;4.07;80.02
25420;BME280;13354;48.174;11.566;2024-03-25T03:57:24;94898.69;;;3.99;79.97
25420;BME280;13354;48.174;11.566;2024-03-25T03:59:51;94904.56;;;4.01;79.44
25420;BME280;13354;48.174;11.566;2024-03-25T04:02:17;94903.53;;;3.79;80.17
25420;BME280;13354;48.174;11.566;2024-03-25T04:04:42;94906.16;;;3.71;80.60
25420;BME280;13354;48.174;11.566;2024-03-25T04:07:07;94909.94;;;3.69;80.90
25420;BME280;13354;48.174;11.566;2024-03-25T04:09:33;94908.59;;;3.81;80.83
25420;BME280;13354;48.174;11.566;2024-03-25T04:11:59;94919.56;;;3.68;81.07
25420;BME280;13354;48.174;11.566;2024-03-25T04:14:26;94913.38;;;3.69;80.89
25420;BME280;13354;48.174;11.566;2024-03-25T04:16:51;94911.44;;;3.63;81.14
25420;BME280;13354;48.174;11.566;2024-03-25T04:19:19;94911.59;;;3.61;81.08
25420;BME280;13354;48.174;11.566;2024-03-25T04:21:44;94917.50;;;3.55;81.20
25420;BME280;13354;48.174;11.566;2024-03-25T04:24:10;94908.66;;;3.65;81.18
25420;BME280;13354;48.174;11.566;2024-03-25T04:26:35;94915.72;;;3.48;81.73
25420;BME280;13354;48.174;11.566;2024-03-25T04:29:01;94922.91;;;3.54;81.96
25420;BME280;13354;48.174;11.566;2024-03-25T04:31:26;94920.66;;;3.43;82.22
25420;BME280;13354;48.174;11.566;2024-03-25T04:33:52;94926.19;;;3.31;83.15
25420;BME280;13354;48.174;11.566;2024-03-25T04:36:17;94925.88;;;3.34;83.12
25420;BME280;13354;48.174;11.566;2024-03-25T04:38:42;94920.31;;;3.29;83.37
25420;BME280;13354;48.174;11.566;2024-03-25T04:41:08;94928.81;;;3.39;82.95
25420;BME280;13354;48.174;11.566;2024-03-25T04:43:33;94929.63;;;3.40;82.93
25420;BME280;13354;48.174;11.566;2024-03-25T04:46:03;94923.59;;;3.39;82.77
25420;BME280;13354;48.174;11.566;2024-03-25T04:48:28;94925.38;;;3.31;83.12
25420;BME280;13354;48.174;11.566;2024-03-25T04:50:55;94921.97;;;3.22;83.38
25420;BME280;13354;48.174;11.566;2024-03-25T04:53:20;94928.50;;;3.26;83.65
25420;BME280;13354;48.174;11.566;2024-03-25T04:55:46;94926.34;;;3.38;83.13
25420;BME280;13354;48.174;11.566;2024-03-25T04:58:11;94923.09;;;3.36;83.35
25420;BME280;13354;48.174;11.566;2024-03-25T05:00:37;94921.28;;;3.45;83.17
25420;BME280;13354;48.174;11.566;2024-03-25T05:03:02;94930.44;;;3.49;82.61
25420;BME280;13354;48.174;11.566;2024-03-25T05:05:29;94927.34;;;3.37;82.79
25420;BME280;13354;48.174;11.566;2024-03-25T05:07:55;94934.38;;;3.36;82.93
25420;BME280;13354;48.174;11.566;2024-03-25T05:10:20;94935.84;;;3.31;82.83
25420;BME280;13354;48.174;11.566;2024-03-25T05:12:46;94939.47;;;3.22;83.38
25420;BME280;13354;48.174;11.566;2024-03-25T05:15:14;94948.28;;;3.29;83.17
25420;BME280;13354;48.174;11.566;2024-03-25T05:17:41;94955.81;;;3.32;83.20
25420;BME280;13354;48.174;11.566;2024-03-25T05:20:07;94949.28;;;3.36;82.96
25420;BME280;13354;48.174;11.566;2024-03-25T05:22:32;94943.03;;;3.45;82.60
25420;BME280;13354;48.174;11.566;2024-03-25T05:24:58;94949.56;;;3.49;82.37
25420;BME280;13354;48.174;11.566;2024-03-25T05:27:23;94951.72;;;3.37;82.30
25420;BME280;13354;48.174;11.566;2024-03-25T05:29:49;94948.94;;;3.39;82.42
25420;BME280;13354;48.174;11.566;2024-03-25T05:32:15;94953.69;;;3.35;82.32
25420;BME280;13354;48.174;11.566;2024-03-25T05:34:42;94953.69;;;3.35;82.04
25420;BME280;13354;48.174;11.566;2024-03-25T05:37:08;94956.44;;;3.42;81.96
25420;BME280;13354;48.174;11.566;2024-03-25T05:39:34;94954.66;;;3.43;82.14
25420;BME280;13354;48.174;11.566;2024-03-25T05:41:59;94949.91;;;3.46;81.71
25420;BME280;13354;48.174;11.566;2024-03-25T05:44:24;94958.25;;;3.42;81.66
25420;BME280;13354;48.174;11.566;2024-03-25T05:46:50;94968.41;;;3.36;82.18
25420;BME280;13354;48.174;11.566;2024-03-25T05:49:15;94967.88;;;3.57;82.39
25420;BME280;13354;48.174;11.566;2024-03-25T05:51:41;94963.78;;;3.63;82.44
25420;BME280;13354;48.174;11.566;2024-03-25T05:54:07;94968.34;;;3.69;82.58
25420;BME280;13354;48.174;11.566;2024-03-25T05:56:32;94967.66;;;3.75;81.43
25420;BME280;13354;48.174;11.566;2024-03-25T05:59:00;94969.50;;;3.67;81.38
25420;BME280;13354;48.174;11.566;2024-03-25T06:01:26;94978.97;;;3.76;80.45
25420;BME280;13354;48.174;11.566;2024-03-25T06:03:52;94967.16;;;3.88;80.43
25420;BME280;13354;48.174;11.566;2024-03-25T06:06:17;94969.47;;;3.75;79.79
25420;BME280;13354;48.174;11.566;2024-03-25T06:08:43;94965.75;;;3.61;79.78
25420;BME280;13354;48.174;11.566;2024-03-25T06:11:08;94974.03;;;3.89;79.46
25420;BME280;13354;48.174;11.566;2024-03-25T06:13:34;94971.72;;;3.86;79.21
25420;BME280;13354;48.174;11.566;2024-03-25T06:15:59;94969.94;;;3.78;79.41
25420;BME280;13354;48.174;11.566;2024-03-25T06:18:25;94978.06;;;4.08;78.90
25420;BME280;13354;48.174;11.566;2024-03-25T06:20:50;94973.94;;;4.14;78.24
25420;BME280;13354;48.174;11.566;2024-03-25T06:23:26;94980.81;;;4.15;77.72
25420;BME280;13354;48.174;11.566;2024-03-25T06:25:52;94977.28;;;3.99;78.11
25420;BME280;13354;48.174;11.566;2024-03-25T06:28:19;94975.56;;;4.15;77.84
25420;BME280;13354;48.174;11.566;2024-03-25T06:30:49;94981.47;;;4.08;77.93
25420;BME280;13354;48.174;11.566;2024-03-25T06:33:33;94985.06;;;4.24;77.54
25420;BME280;13354;48.174;11.566;2024-03-25T06:36:18;94988.34;;;4.18;77.14
25420;BME280;13354;48.174;11.566;2024-03-25T06:38:44;94981.81;;;4.53;76.47
25420;BME280;13354;48.174;11.566;2024-03-25T06:41:10;94980.22;;;4.44;76.31
25420;BME280;13354;48.174;11.566;2024-03-25T06:43:38;94982.72;;;4.68;76.07
25420;BME280;13354;48.174;11.566;2024-03-25T06:46:04;94987.81;;;4.62;75.57
25420;BME280;13354;48.174;11.566;2024-03-25T06:48:30;94996.63;;;4.69;75.52
25420;BME280;13354;48.174;11.566;2024-03-25T06:50:56;94993.78;;;4.78;75.12
25420;BME280;13354;48.174;11.566;2024-03-25T06:53:22;94992.22;;;4.69;74.63
25420;BME280;13354;48.174;11.566;2024-03-25T06:55:58;94978.81;;;4.87;74.16
25420;BME280;13354;48.174;11.566;2024-03-25T06:58:25;94996.88;;;4.82;74.27
25420;BME280;13354;48.174;11.566;2024-03-25T07:00:51;94986.03;;;4.85;73.96
25420;BME280;13354;48.174;11.566;2024-03-25T07:03:18;94996.44;;;5.01;73.23
25420;BME280;13354;48.174;11.566;2024-03-25T07:05:47;94986.81;;;5.17;73.32
25420;BME280;13354;48.174;11.566;2024-03-25T07:08:14;94993.09;;;5.07;73.26
25420;BME280;13354;48.174;11.566;2024-03-25T07:10:43;94987.16;;;5.14;72.64
25420;BME280;13354;48.174;11.566;2024-03-25T07:13:08;94980.97;;;5.06;71.92
25420;BME280;13354;48.174;11.566;2024-03-25T07:15:34;94977.63;;;4.98;72.11
25420;BME280;13354;48.174;11.566;2024-03-25T07:18:00;94978.72;;;5.03;72.40
25420;BME280;13354;48.174;11.566;2024-03-25T07:20:25;94988.44;;;5.18;72.00
25420;BME280;13354;48.174;11.566;2024-03-25T07:22:55;94983.66;;;5.21;71.92
25420;BME280;13354;48.174;11.566;2024-03-25T07:25:21;94980.28;;;5.13;71.42
25420;BME280;13354;48.174;11.566;2024-03-25T07:27:47;94985.59;;;5.04;71.99
25420;BME280;13354;48.174;11.566;2024-03-25T07:30:12;94982.84;;;5.21;71.16
25420;BME280;13354;48.174;11.566;2024-03-25T07:32:38;94986.47;;;5.20;70.81
25420;BME280;13354;48.174;11.566;2024-03-25T07:35:04;94988.84;;;5.52;69.98
25420;BME280;13354;48.174;11.566;2024-03-25T07:37:30;94997.00;;;5.57;69.13
25420;BME280;13354;48.174;11.566;2024-03-25T07:39:56;94985.09;;;5.47;68.71
25420;BME280;13354;48.174;11.566;2024-03-25T07:42:21;94979.88;;;5.62;68.33
25420;BME280;13354;48.174;11.566;2024-03-25T07:44:47;94982.88;;;5.73;68.38
25420;BME280;13354;48.174;11.566;2024-03-25T07:47:12;94988.25;;;5.80;68.14
25420;BME280;13354;48.174;11.566;2024-03-25T07:49:38;94988.59;;;5.77;67.54
25420;BME280;13354;48.174;11.566;2024-03-25T07:52:05;94988.44;;;5.78;67.55
25420;BME280;13354;48.174;11.566;2024-03-25T07:54:31;94983.25;;;5.85;67.38
25420;BME280;13354;48.174;11.566;2024-03-25T07:56:56;94990.44;;;5.91;67.54
25420;BME280;13354;48.174;11.566;2024-03-25T07:59:22;94982.34;;;5.78;67.67
25420;BME280;13354;48.174;11.566;2024-03-25T08:01:48;94979.69;;;6.01;67.56
25420;BME280;13354;48.174;11.566;2024-03-25T08:04:13;94977.97;;;5.93;67.33
25420;BME280;13354;48.174;11.566;2024-03-25T08:06:39;94974.69;;;6.06;67.74
25420;BME280;13354;48.174;11.566;2024-03-25T08:09:04;94975.41;;;6.00;66.99
25420;BME280;13354;48.174;11.566;2024-03-25T08:11:34;94967.47;;;6.08;67.77
25420;BME280;13354;48.174;11.566;2024-03-25T08:13:59;94974.44;;;6.01;67.06
25420;BME280;13354;48.174;11.566;2024-03-25T08:16:25;94964.91;;;6.15;66.53
25420;BME280;13354;48.174;11.566;2024-03-25T08:18:51;94969.72;;;6.26;65.82
25420;BME280;13354;48.174;11.566;2024-03-25T08:21:16;94970.72;;;6.25;66.03
25420;BME280;13354;48.174;11.566;2024-03-25T08:23:46;94959.63;;;6.29;65.24
25420;BME280;13354;48.174;11.566;2024-03-25T08:26:11;94971.44;;;6.34;64.89
25420;BME280;13354;48.174;11.566;2024-03-25T08:28:37;94975.22;;;6.46;65.27
25420;BME280;13354;48.174;11.566;2024-03-25T08:31:03;94967.78;;;6.49;65.36
25420;BME280;13354;48.174;11.566;2024-03-25T08:33:29;94972.81;;;6.66;65.15
25420;BME280;13354;48.174;11.566;2024-03-25T08:35:55;94973.56;;;6.74;65.15
25420;BME280;13354;48.174;11.566;2024-03-25T08:38:20;94963.03;;;7.17;64.25
25420;BME280;13354;48.174;11.566;2024-03-25T08:40:46;94970.31;;;7.15;62.68
25420;BME280;13354;48.174;11.566;2024-03-25T08:43:12;94974.59;;;7.38;62.81
25420;BME280;13354;48.174;11.566;2024-03-25T08:45:37;94964.06;;;7.38;61.30
25420;BME280;13354;48.174;11.566;2024-03-25T08:48:04;94965.13;;;7.22;61.50
25420;BME280;13354;48.174;11.566;2024-03-25T08:50:30;94971.13;;;7.59;61.89
25420;BME280;13354;48.174;11.566;2024-03-25T08:52:55;94962.59;;;7.85;60.45
25420;BME280;13354;48.174;11.566;2024-03-25T08:55:21;94963.91;;;8.02;59.36
25420;BME280;13354;48.174;11.566;2024-03-25T08:57:46;94952.81;;;8.13;59.10
25420;BME280;13354;48.174;11.566;2024-03-25T09:00:28;94949.81;;;8.58;59.43
25420;BME280;13354;48.174;11.566;2024-03-25T09:03:03;94948.59;;;9.28;59.39
25420;BME280;13354;48.174;11.566;2024-03-25T09:05:29;94934.34;;;10.02;57.22
25420;BME280;13354;48.174;11.566;2024-03-25T09:07:55;94945.09;;;10.01;54.51
25420;BME280;13354;48.174;11.566;2024-03-25T09:10:21;94934.44;;;10.40;53.28
25420;BME280;13354;48.174;11.566;2024-03-25T09:13:04;94935.09;;;10.29;53.32
25420;BME280;13354;48.174;11.566;2024-03-25T09:15:30;94939.28;;;10.57;53.23
25420;BME280;13354;48.174;11.566;2024-03-25T09:17:55;94931.63;;;10.42;51.41
25420;BME280;13354;48.174;11.566;2024-03-25T09:20:22;94931.81;;;10.40;51.23
25420;BME280;13354;48.174;11.566;2024-03-25T09:22:47;94936.41;;;9.87;52.50
25420;BME280;13354;48.174;11.566;2024-03-25T09:25:17;94929.84;;;10.03;53.34
25420;BME280;13354;48.174;11.566;2024-03-25T09:27:49;94920.44;;;10.27;50.78
25420;BME280;13354;48.174;11.566;2024-03-25T09:30:15;94912.72;;;10.12;49.16
25420;BME280;13354;48.174;11.566;2024-03-25T09:32:41;94919.81;;;10.25;49.96
25420;BME280;13354;48.174;11.566;2024-03-25T09:35:06;94923.75;;;10.09;49.19
25420;BME280;13354;48.174;11.566;2024-03-25T09:37:32;94926.22;;;9.84;48.75
25420;BME280;13354;48.174;11.566;2024-03-25T09:39:58;94939.03;;;9.40;49.21
25420;BME280;13354;48.174;11.566;2024-03-25T09:42:28;94930.09;;;9.22;49.66
25420;BME280;13354;48.174;11.566;2024-03-25T09:44:55;94927.25;;;9.10;51.05
25420;BME280;13354;48.174;11.566;2024-03-25T09:47:22;94930.72;;;9.43;50.59
25420;BME280;13354;48.174;11.566;2024-03-25T09:49:48;94924.63;;;9.36;47.78
25420;BME280;13354;48.174;11.566;2024-03-25T09:52:16;94921.97;;;9.36;47.97
25420;BME280;13354;48.174;11.566;2024-03-25T09:54:42;94924.41;;;9.38;48.00
25420;BME280;13354;48.174;11.566;2024-03-25T09:57:08;94915.06;;;9.55;47.88
25420;BME280;13354;48.174;11.566;2024-03-25T09:59:34;94919.50;;;9.68;47.61
25420;BME280;13354;48.174;11.566;2024-03-25T10:02:01;94914.00;;;9.89;47.49
25420;BME280;13354;48.174;11.566;2024-03-25T10:04:27;94897.78;;;10.51;47.03
25420;BME280;13354;48.174;11.566;2024-03-25T10:06:52;94897.22;;;10.80;44.32
25420;BME280;13354;48.174;11.566;2024-03-25T10:09:22;94896.59;;;11.17;43.65
25420;BME280;13354;48.174;11.566;2024-03-25T10:11:48;94895.22;;;11.07;43.24
25420;BME280;13354;48.174;11.566;2024-03-25T10:14:17;94890.72;;;11.08;42.86
25420;BME280;13354;48.174;11.566;2024-03-25T10:16:44;94883.78;;;11.13;44.37
25420;BME280;13354;48.174;11.566;2024-03-25T10:19:09;94879.06;;;10.91;41.38
25420;BME280;13354;48.174;11.566;2024-03-25T10:21:35;94886.34;;;10.95;41.03
25420;BME280;13354;48.174;11.566;2024-03-25T10:24:03;94879.84;;;10.91;40.17
25420;BME280;13354;48.174;11.566;2024-03-25T10:26:31;94877.28;;;10.78;42.19
25420;BME280;13354;48.174;11.566;2024-03-25T10:29:02;94876.81;;;10.87;41.96
25420;BME280;13354;48.174;11.566;2024-03-25T10:31:31;94877.47;;;11.08;41.82
25420;BME280;13354;48.174;11.566;2024-03-25T10:33:57;94859.53;;;11.42;41.86
25420;BME280;13354;48.174;11.566;2024-03-25T10:36:24;94853.94;;;11.50;41.13
25420;BME280;13354;48.174;11.566;2024-03-25T10:38:57;94857.31;;;11.82;42.50
25420;BME280;13354;48.174;11.566;2024-03-25T10:41:27;94853.38;;;11.91;41.96
25420;BME280;13354;48.174;11.566;2024-03-25T10:43:54;94853.00;;;12.06;40.94
25420;BME280;13354;48.174;11.566;2024-03-25T10:46:20;94849.53;;;12.42;42.60
25420;BME280;13354;48.174;11.566;2024-03-25T10:49:19;94844.50;;;12.82;43.45
25420;BME280;13354;48.174;11.566;2024-03-25T10:51:45;94842.88;;;13.23;42.53
25420;BME280;13354;48.174;11.566;2024-03-25T10:54:13;94832.84;;;13.37;38.21
25420;BME280;13354;48.174;11.566;2024-03-25T10:56:39;94826.59;;;13.32;36.82
25420;BME280;13354;48.174;11.566;2024-03-25T10:59:05;94823.03;;;13.61;36.78
25420;BME280;13354;48.174;11.566;2024-03-25T11:01:32;94822.34;;;13.42;36.57
25420;BME280;13354;48.174;11.566;2024-03-25T11:03:59;94823.91;;;13.20;37.52
25420;BME280;13354;48.174;11.566;2024-03-25T11:06:26;94817.47;;;13.27;36.70
25420;BME280;13354;48.174;11.566;2024-03-25T11:08:58;94812.53;;;13.66;39.97
25420;BME280;13354;48.174;11.566;2024-03-25T11:11:33;94801.94;;;14.07;37.82
25420;BME280;13354;48.174;11.566;2024-03-25T11:14:02;94811.69;;;13.89;37.75
25420;BME280;13354;48.174;11.566;2024-03-25T11:16:31;94804.03;;;13.93;36.28
25420;BME280;13354;48.174;11.566;2024-03-25T11:19:04;94794.44;;;14.44;34.98
25420;BME280;13354;48.174;11.566;2024-03-25T11:21:32;94801.66;;;14.20;34.18
25420;BME280;13354;48.174;11.566;2024-03-25T11:24:06;94790.25;;;14.48;34.72
25420;BME280;13354;48.174;11.566;2024-03-25T11:26:32;94788.06;;;14.73;33.26
25420;BME280;13354;48.174;11.566;2024-03-25T11:29:00;94785.97;;;14.76;32.97
25420;BME280;13354;48.174;11.566;2024-03-25T11:31:26;94790.25;;;14.48;32.91
25420;BME280;13354;48.174;11.566;2024-03-25T11:33:52;94777.72;;;14.48;32.39
25420;BME280;13354;48.174;11.566;2024-03-25T11:36:18;94762.91;;;14.81;33.43
25420;BME280;13354;48.174;11.566;2024-03-25T11:38:46;94764.63;;;14.59;32.70
25420;BME280;13354;48.174;11.566;2024-03-25T11:41:12;94764.78;;;14.52;33.36
25420;BME280;13354;48.174;11.566;2024-03-25T11:43:37;94760.91;;;14.60;32.43
25420;BME280;13354;48.174;11.566;2024-03-25T11:46:03;94756.88;;;14.29;34.30
25420;BME280;13354;48.174;11.566;2024-03-25T11:48:29;94754.66;;;14.66;32.85
25420;BME280;13354;48.174;11.566;2024-03-25T11:50:55;94759.72;;;14.67;32.69
25420;BME280;13354;48.174;11.566;2024-03-25T11:53:20;94760.53;;;14.68;33.29
25420;BME280;13354;48.174;11.566;2024-03-25T11:55:47;94742.13;;;14.83;33.80
25420;BME280;13354;48.174;11.566;2024-03-25T11:58:13;94744.00;;;14.83;32.80
25420;BME280;13354;48.174;11.566;2024-03-25T12:00:46;94735.13;;;14.77;31.69
25420;BME280;13354;48.174;11.566;2024-03-25T12:03:16;94722.75;;;14.71;33.04
25420;BME280;13354;48.174;11.566;2024-03-25T12:05:45;94727.47;;;14.81;33.20
25420;BME280;13354;48.174;11.566;2024-03-25T12:08:11;94729.63;;;14.84;33.17
25420;BME280;13354;48.174;11.566;2024-03-25T12:10:38;94712.19;;;14.93;32.93
25420;BME280;13354;48.174;11.566;2024-03-25T12:13:23;94717.50;;;14.93;31.29
25420;BME280;13354;48.174;11.566;2024-03-25T12:15:53;94708.16;;;15.07;30.93
25420;BME280;13354;48.174;11.566;2024-03-25T12:18:21;94689.84;;;15.33;30.43
25420;BME280;13354;48.174;11.566;2024-03-25T12:20:46;94698.94;;;15.54;31.22
25420;BME280;13354;48.174;11.566;2024-03-25T12:23:12;94698.38;;;14.79;29.77
25420;BME280;13354;48.174;11.566;2024-03-25T12:25:37;94700.88;;;14.86;31.28
25420;BME280;13354;48.174;11.566;2024-03-25T12:28:13;94691.25;;;15.18;30.04
25420;BME280;13354;48.174;11.566;2024-03-25T12:30:50;94683.72;;;15.71;31.61
25420;BME280;13354;48.174;11.566;2024-03-25T12:33:16;94677.19;;;16.33;32.24
25420;BME280;13354;48.174;11.566;2024-03-25T12:35:45;94675.31;;;16.60;30.80
25420;BME280;13354;48.174;11.566;2024-03-25T12:38:27;94670.25;;;17.28;29.81
25420;BME280;13354;48.174;11.566;2024-03-25T12:41:00;94661.94;;;17.30;29.88
25420;BME280;13354;48.174;11.566;2024-03-25T12:43:30;94652.78;;;17.15;31.30
25420;BME280;13354;48.174;11.566;2024-03-25T12:45:57;94655.38;;;17.48;30.34
25420;BME280;13354;48.174;11.566;2024-03-25T12:48:22;94642.75;;;17.91;31.37
25420;BME280;13354;48.174;11.566;2024-03-25T12:50:48;94645.44;;;17.96;29.32
25420;BME280;13354;48.174;11.566;2024-03-25T12:53:17;94651.94;;;17.57;29.09
25420;BME280;13354;48.174;11.566;2024-03-25T12:55:43;94651.22;;;17.20;29.32